createdAt,value
2024-02-14T00:01:12.338Z,68.83
2024-02-14T00:11:15.639Z,69.26
2024-02-14T00:21:19.882Z,69.25
2024-02-14T00:31:22.816Z,70.15
2024-02-14T00:41:30.888Z,70.52
2024-02-14T00:51:34.513Z,70.88
2024-02-14T01:01:38.685Z,70.91
2024-02-14T01:11:41.509Z,71.26
2024-02-14T01:21:49.368Z,71.22
2024-02-14T01:31:52.375Z,71.33
2024-02-14T01:41:56.612Z,71.35
2024-02-14T01:52:01.715Z,70.69
2024-02-14T02:02:08.309Z,69.89
2024-02-14T02:12:11.336Z,69.22
2024-02-14T02:22:15.567Z,69.15
2024-02-14T02:32:20.099Z,69.44
2024-02-14T02:42:23.092Z,69.79
2024-02-14T02:52:28.135Z,70.13
2024-02-14T03:02:30.937Z,70.41
2024-02-14T03:12:36.763Z,71.21
2024-02-14T03:22:40.382Z,70.88
2024-02-14T03:32:44.642Z,70.48
2024-02-14T03:42:47.449Z,70.36
2024-02-14T03:52:52.101Z,70.43
2024-02-14T04:02:54.990Z,70.45
2024-02-14T04:12:59.447Z,70.32
2024-02-14T04:23:02.313Z,70.13
2024-02-14T04:33:10.418Z,69.32
2024-02-14T04:43:15.495Z,69.92
2024-02-14T04:53:21.026Z,69.79
2024-02-14T05:03:25.390Z,70.01
2024-02-14T05:13:29.602Z,70.47
2024-02-14T05:23:32.382Z,70.64
2024-02-14T05:33:37.045Z,71.17
2024-02-14T05:43:40.302Z,71.50
2024-02-14T05:53:44.429Z,72.25
2024-02-14T06:03:47.281Z,73.33
2024-02-14T06:13:51.446Z,72.90
2024-02-14T06:23:54.315Z,75.04
2024-02-14T06:33:58.660Z,75.94
2024-02-14T06:44:04.301Z,77.60
2024-02-14T06:54:09.087Z,79.07
2024-02-14T07:04:11.964Z,79.27
2024-02-14T07:14:16.136Z,78.38
2024-02-14T07:24:19.401Z,76.59
2024-02-14T07:34:24.107Z,75.15
2024-02-14T07:44:27.034Z,75.66
2024-02-14T07:54:31.252Z,75.99
2024-02-14T08:04:34.210Z,74.98
2024-02-14T08:14:38.729Z,75.04
2024-02-14T08:24:41.651Z,75.53
2024-02-14T08:34:46.240Z,75.81
2024-02-14T08:44:49.891Z,76.54
2024-02-14T08:54:54.120Z,76.91
2024-02-14T09:04:56.960Z,77.07
2024-02-14T09:15:01.480Z,76.84
2024-02-14T09:25:05.452Z,76.70
2024-02-14T09:35:11.332Z,78.00
2024-02-14T09:45:17.902Z,79.29
2024-02-14T09:55:28.534Z,78.44
2024-02-14T10:05:32.490Z,77.96
2024-02-14T10:15:37.864Z,77.67
2024-02-14T10:25:40.747Z,78.63
2024-02-14T10:35:45.291Z,77.78
2024-02-14T10:45:48.441Z,79.06
2024-02-14T10:55:53.994Z,79.52
2024-02-14T11:06:02.001Z,78.87
2024-02-14T11:16:08.632Z,79.83
2024-02-14T11:26:17.699Z,78.82
2024-02-14T11:36:22.745Z,80.82
2024-02-14T11:46:25.664Z,79.09
2024-02-14T11:56:34.654Z,79.16
2024-02-14T12:06:39.021Z,78.61
2024-02-14T12:16:43.596Z,80.13
2024-02-14T12:26:46.600Z,81.41
2024-02-14T12:36:50.866Z,79.96
2024-02-14T12:46:53.689Z,80.15
2024-02-14T12:56:57.958Z,80.23
2024-02-14T13:07:01.104Z,79.92
2024-02-14T13:17:06.101Z,81.13
2024-02-14T13:27:09.033Z,81.93
2024-02-14T13:37:14.311Z,85.58
2024-02-14T13:47:20.802Z,88.69
2024-02-14T13:57:24.949Z,89.36
2024-02-14T14:07:27.767Z,90.89
2024-02-14T14:17:32.055Z,91.14
2024-02-14T14:27:35.001Z,91.78
2024-02-14T14:37:39.440Z,92.39
2024-02-14T14:47:42.421Z,93.51
2024-02-14T14:57:46.612Z,93.84
2024-02-14T15:07:49.425Z,95.13
2024-02-14T15:17:53.741Z,96.73
2024-02-14T15:27:56.670Z,99.31
2024-02-14T15:38:01.864Z,100.00
2024-02-14T15:48:05.157Z,99.85
2024-02-14T15:58:09.459Z,99.97
2024-02-14T16:08:17.250Z,100.00
2024-02-14T16:18:21.494Z,100.00
2024-02-14T16:28:24.356Z,100.00
2024-02-14T16:38:28.601Z,100.00
2024-02-14T16:48:32.616Z,100.00
2024-02-14T16:58:37.350Z,100.00
2024-02-14T17:08:44.088Z,100.00
2024-02-14T17:18:48.412Z,100.00
2024-02-14T17:28:51.213Z,100.00
2024-02-14T17:38:56.980Z,100.00
2024-02-14T17:49:00.105Z,100.00
2024-02-14T17:59:04.398Z,100.00
2024-02-14T18:09:08.454Z,100.00
2024-02-14T18:19:12.793Z,100.00
2024-02-14T18:29:15.955Z,100.00
2024-02-14T18:39:20.418Z,100.00
2024-02-14T18:49:24.845Z,100.00
2024-02-14T18:59:29.144Z,100.00
2024-02-14T19:09:32.976Z,100.00
2024-02-14T19:19:37.874Z,100.00
2024-02-14T19:29:40.918Z,100.00
2024-02-14T19:39:45.080Z,100.00
2024-02-14T19:49:48.065Z,100.00
2024-02-14T19:59:52.253Z,100.00
2024-02-14T20:09:55.180Z,100.00
2024-02-14T20:20:00.720Z,100.00
2024-02-14T20:30:07.501Z,100.00
2024-02-14T20:40:14.801Z,100.00
2024-02-14T20:50:17.848Z,100.00
2024-02-14T21:00:22.824Z,100.00
2024-02-14T21:10:28.667Z,100.00
2024-02-14T21:20:33.022Z,100.00
2024-02-14T21:30:35.878Z,100.00
2024-02-14T21:40:40.059Z,100.00
2024-02-14T21:50:43.203Z,100.00
2024-02-14T22:00:48.003Z,100.00
2024-02-14T22:10:51.036Z,100.00
2024-02-14T22:20:55.377Z,100.00
2024-02-14T22:30:58.210Z,100.00
2024-02-14T22:41:02.415Z,100.00
2024-02-14T22:51:05.797Z,100.00
2024-02-14T23:01:10.017Z,100.00
2024-02-14T23:11:12.953Z,100.00
2024-02-14T23:21:19.085Z,100.00
2024-02-14T23:31:24.626Z,100.00
2024-02-14T23:41:28.848Z,100.00
2024-02-14T23:51:32.116Z,100.00
